Time;durP1;ratioP1;P1;durP2;ratioP2;P2;SDS_P1;SDS_P2;PMS_P1;PMS_P2;Temp;Humidity;BMP_temperature;BMP_pressure;BME280_temperature;BME280_humidity;BME280_pressure;Samples;Min_cycle;Max_cycle;Signal;HPM_P1;HPM_P2
2021/01/23 00:01:40;;;;;;;1.33;0.90;;;22.30;51.40;;;;;;5025170;28;20188;-84
2021/01/23 00:04:06;;;;;;;1.40;0.90;;;22.30;51.50;;;;;;5024802;28;21505;-84
2021/01/23 00:06:33;;;;;;;1.70;0.97;;;22.30;51.50;;;;;;4995756;28;20432;-83
2021/01/23 00:09:00;;;;;;;1.20;0.87;;;22.30;51.50;;;;;;5010793;28;20500;-83
2021/01/23 00:11:26;;;;;;;1.37;0.77;;;22.30;51.50;;;;;;5019380;28;20428;-83
2021/01/23 00:13:51;;;;;;;1.50;0.77;;;22.30;51.50;;;;;;5018959;28;20824;-84
2021/01/23 00:16:18;;;;;;;1.57;0.87;;;22.30;51.50;;;;;;5026179;28;20185;-83
2021/01/23 00:18:44;;;;;;;1.50;1.00;;;22.30;51.50;;;;;;5026756;28;20200;-83
2021/01/23 00:21:10;;;;;;;1.47;0.90;;;22.30;51.50;;;;;;5013948;28;20479;-83
2021/01/23 00:23:37;;;;;;;1.23;0.80;;;22.30;51.50;;;;;;5015800;28;20454;-84
2021/01/23 00:26:03;;;;;;;1.97;1.00;;;22.30;51.50;;;;;;5019937;28;20188;-83
2021/01/23 00:28:29;;;;;;;1.30;1.00;;;22.20;51.40;;;;;;5017711;28;20419;-83
2021/01/23 00:30:56;;;;;;;1.20;0.80;;;22.20;51.40;;;;;;5016551;28;20188;-83
2021/01/23 00:33:22;;;;;;;1.33;0.80;;;22.20;51.50;;;;;;5022212;28;20236;-83
2021/01/23 00:35:48;;;;;;;1.10;0.90;;;22.20;51.40;;;;;;5021903;28;20445;-83
2021/01/23 00:38:14;;;;;;;3.20;1.20;;;22.20;51.40;;;;;;5023190;28;20185;-83
2021/01/23 00:40:39;;;;;;;1.23;1.00;;;22.20;51.40;;;;;;5031167;28;20183;-84
2021/01/23 00:43:08;;;;;;;1.57;1.17;;;22.20;51.40;;;;;;5022494;28;20279;-84
2021/01/23 00:45:34;;;;;;;1.30;0.93;;;22.20;51.40;;;;;;5030392;28;20180;-84
2021/01/23 00:48:14;;;;;;;1.10;0.90;;;22.20;51.40;;;;;;5031499;28;20434;-83
2021/01/23 00:50:43;;;;;;;1.97;1.00;;;22.20;51.40;;;;;;5029277;28;20180;-83
2021/01/23 00:53:09;;;;;;;3.00;0.90;;;22.20;51.50;;;;;;5027991;28;20447;-84
2021/01/23 00:55:35;;;;;;;1.23;0.90;;;22.20;51.50;;;;;;5028952;28;20726;-84
2021/01/23 00:58:00;;;;;;;1.10;0.80;;;22.20;51.50;;;;;;5028142;28;20168;-84
2021/01/23 01:00:27;;;;;;;1.10;0.73;;;22.20;51.50;;;;;;5028943;28;20415;-84
2021/01/23 01:02:53;;;;;;;1.57;0.90;;;22.20;51.50;;;;;;5029082;28;20187;-84
2021/01/23 01:05:22;;;;;;;2.03;1.00;;;22.20;51.50;;;;;;5010698;28;20440;-84
2021/01/23 01:07:49;;;;;;;1.53;1.20;;;22.20;51.50;;;;;;5028051;28;20431;-84
2021/01/23 01:10:15;;;;;;;1.00;0.80;;;22.20;51.50;;;;;;5027681;28;20438;-84
2021/01/23 01:12:41;;;;;;;1.30;0.83;;;22.10;51.40;;;;;;5010977;28;20986;-84
2021/01/23 01:15:08;;;;;;;1.10;0.73;;;22.10;51.40;;;;;;5030583;28;20434;-83
2021/01/23 01:17:34;;;;;;;1.10;0.80;;;22.10;51.40;;;;;;5028540;28;20176;-84
2021/01/23 01:20:00;;;;;;;1.20;0.90;;;22.20;51.50;;;;;;5031569;28;20411;-84
2021/01/23 01:22:26;;;;;;;1.50;1.00;;;22.10;51.50;;;;;;5031851;28;20438;-84
2021/01/23 01:24:54;;;;;;;3.10;0.90;;;22.10;51.50;;;;;;5028288;28;20419;-84
2021/01/23 01:27:19;;;;;;;1.93;0.90;;;22.20;51.50;;;;;;5032955;28;20506;-84
2021/01/23 01:29:45;;;;;;;1.07;0.80;;;22.10;51.50;;;;;;5030330;28;20427;-84
2021/01/23 01:32:11;;;;;;;2.13;1.03;;;22.10;51.50;;;;;;5028863;28;20214;-84
2021/01/23 01:34:37;;;;;;;1.00;0.80;;;22.10;51.50;;;;;;5030107;28;20263;-84
2021/01/23 01:37:03;;;;;;;1.70;0.80;;;22.10;51.50;;;;;;5028908;28;20184;-84
2021/01/23 01:39:28;;;;;;;1.23;0.80;;;22.10;51.50;;;;;;5034258;28;20175;-83
2021/01/23 01:41:54;;;;;;;1.43;0.90;;;22.10;51.50;;;;;;5041384;28;20235;-84
2021/01/23 01:44:20;;;;;;;1.10;0.87;;;22.10;51.50;;;;;;5020394;28;20184;-84
2021/01/23 01:46:46;;;;;;;1.03;0.87;;;22.10;51.50;;;;;;5028413;28;20427;-83
2021/01/23 01:49:13;;;;;;;1.13;0.93;;;22.10;51.50;;;;;;5012278;28;20188;-84
2021/01/23 01:51:38;;;;;;;1.20;0.80;;;22.10;51.50;;;;;;5029399;28;20191;-83
2021/01/23 01:54:04;;;;;;;0.90;0.70;;;22.10;51.50;;;;;;5028665;28;20479;-83
2021/01/23 01:56:31;;;;;;;1.57;1.00;;;22.10;51.50;;;;;;5032632;28;20153;-84
2021/01/23 01:58:57;;;;;;;1.23;0.80;;;22.10;51.50;;;;;;5027691;28;20574;-83
2021/01/23 02:01:23;;;;;;;1.40;0.90;;;22.10;51.50;;;;;;5031480;28;20404;-84
2021/01/23 02:04:21;;;;;;;1.10;0.70;;;22.10;51.50;;;;;;5029952;28;20176;-84
2021/01/23 02:06:46;;;;;;;1.13;0.80;;;22.10;51.50;;;;;;5017834;28;20802;-84
2021/01/23 02:09:47;;;;;;;1.03;0.90;;;22.10;51.50;;;;;;5022371;28;20502;-84
2021/01/23 02:12:31;;;;;;;2.07;0.93;;;22.10;51.50;;;;;;5015007;28;20207;-84
2021/01/23 02:15:02;;;;;;;1.07;0.70;;;22.00;51.50;;;;;;5029076;28;20415;-84
2021/01/23 02:24:02;;;;;;;1.00;0.70;;;22.10;51.50;;;;;;5008062;28;20446;-83
2021/01/23 02:26:46;;;;;;;1.30;0.73;;;22.00;51.50;;;;;;4991576;28;20435;-83
2021/01/23 02:29:26;;;;;;;1.10;0.80;;;22.10;51.60;;;;;;4991819;28;20435;-84
2021/01/23 02:31:59;;;;;;;1.20;0.93;;;22.00;51.50;;;;;;4992962;28;20408;-84
2021/01/23 02:34:26;;;;;;;1.77;0.90;;;22.00;51.50;;;;;;4993290;28;20423;-84
2021/01/23 02:36:54;;;;;;;1.20;0.90;;;22.00;51.50;;;;;;4996072;28;20420;-84
2021/01/23 02:39:22;;;;;;;1.20;0.80;;;22.00;51.50;;;;;;4995621;28;20435;-84
2021/01/23 02:41:49;;;;;;;1.33;0.80;;;22.00;51.50;;;;;;5013768;28;20408;-83
2021/01/23 02:44:15;;;;;;;1.30;0.90;;;22.00;51.50;;;;;;5013640;28;20424;-83
2021/01/23 02:46:41;;;;;;;1.10;0.90;;;22.00;51.50;;;;;;5011483;28;20489;-84
2021/01/23 02:49:08;;;;;;;1.00;0.77;;;22.00;51.50;;;;;;4998286;28;20789;-84
2021/01/23 02:51:42;;;;;;;1.27;0.80;;;22.10;51.50;;;;;;5018822;28;20193;-84
2021/01/23 02:54:34;;;;;;;1.27;0.90;;;22.00;51.50;;;;;;5030251;28;20447;-84
2021/01/23 02:57:02;;;;;;;0.90;0.70;;;22.00;51.40;;;;;;5031751;28;20483;-84
2021/01/23 02:59:31;;;;;;;1.30;0.80;;;22.00;51.50;;;;;;5032417;28;20475;-84
2021/01/23 03:01:58;;;;;;;1.20;0.80;;;22.00;51.50;;;;;;5032110;28;20930;-84
2021/01/23 03:04:24;;;;;;;1.00;0.70;;;22.00;51.50;;;;;;5031306;28;20774;-84
2021/01/23 03:06:50;;;;;;;0.90;0.73;;;21.90;51.50;;;;;;5032275;28;20446;-84
2021/01/23 03:09:21;;;;;;;0.90;0.70;;;22.00;51.50;;;;;;5030329;28;20415;-84
2021/01/23 03:11:48;;;;;;;1.00;0.70;;;22.00;51.50;;;;;;5032445;28;20418;-84
2021/01/23 03:14:14;;;;;;;1.70;1.10;;;21.90;51.50;;;;;;5031283;28;20491;-84
2021/01/23 03:16:51;;;;;;;1.10;0.87;;;21.90;51.50;;;;;;5035080;28;20446;-83
2021/01/23 03:19:18;;;;;;;1.80;0.93;;;22.00;51.60;;;;;;5032101;28;20422;-83
2021/01/23 03:21:46;;;;;;;1.10;0.80;;;21.90;51.60;;;;;;5032835;28;20399;-83
2021/01/23 03:24:13;;;;;;;1.43;0.83;;;21.90;51.60;;;;;;5034088;28;20435;-83
2021/01/23 03:26:40;;;;;;;1.40;0.90;;;21.80;51.50;;;;;;5033578;28;20403;-83
2021/01/23 03:29:06;;;;;;;1.40;0.80;;;21.90;51.60;;;;;;5033714;28;20453;-83
2021/01/23 03:31:33;;;;;;;1.10;1.00;;;21.80;51.60;;;;;;5034289;28;20762;-83
2021/01/23 03:33:59;;;;;;;1.20;0.80;;;21.90;51.70;;;;;;5033404;28;20434;-83
2021/01/23 03:36:25;;;;;;;1.17;0.87;;;21.80;51.60;;;;;;5032147;28;20396;-83
2021/01/23 03:38:52;;;;;;;1.00;0.80;;;21.80;51.70;;;;;;5032195;28;20411;-84
2021/01/23 03:41:21;;;;;;;1.00;0.70;;;21.90;51.70;;;;;;5011079;28;20208;-84
2021/01/23 03:43:48;;;;;;;1.67;1.00;;;21.80;52.20;;;;;;5015060;28;20439;-84
2021/01/23 03:46:14;;;;;;;1.73;0.90;;;21.80;51.70;;;;;;5014581;28;20483;-83
2021/01/23 03:48:40;;;;;;;2.50;0.70;;;21.80;51.70;;;;;;5009831;28;20455;-82
2021/01/23 03:51:06;;;;;;;1.67;0.80;;;21.80;51.80;;;;;;5024082;28;20438;-83
2021/01/23 03:53:32;;;;;;;1.57;0.70;;;21.80;51.80;;;;;;5028290;28;20231;-83
2021/01/23 03:55:58;;;;;;;1.30;0.90;;;21.80;51.80;;;;;;5030227;28;20411;-83
2021/01/23 04:01:48;;;;;;;1.20;0.80;;;21.70;51.70;;;;;;5023036;28;20591;-83
2021/01/23 04:04:13;;;;;;;1.10;0.80;;;21.70;51.80;;;;;;5033114;28;20435;-84
2021/01/23 04:06:39;;;;;;;1.87;1.03;;;21.70;51.80;;;;;;5031769;28;20424;-84
2021/01/23 04:09:05;;;;;;;1.33;0.80;;;21.70;51.80;;;;;;5030609;28;20180;-83
2021/01/23 04:11:31;;;;;;;1.90;0.90;;;21.70;51.70;;;;;;5033989;28;20176;-83
2021/01/23 04:13:57;;;;;;;1.47;0.83;;;21.70;51.70;;;;;;5030216;28;20204;-83
2021/01/23 04:16:23;;;;;;;1.00;0.80;;;21.70;51.70;;;;;;5030999;28;20215;-83
2021/01/23 04:18:48;;;;;;;1.00;0.80;;;21.70;51.70;;;;;;5030853;28;20187;-83
2021/01/23 04:21:15;;;;;;;1.83;1.13;;;21.70;51.70;;;;;;5030867;28;20913;-83
2021/01/23 04:23:44;;;;;;;1.00;0.90;;;21.70;51.70;;;;;;5031263;28;20191;-83
2021/01/23 04:26:11;;;;;;;1.07;0.80;;;21.70;51.70;;;;;;5029934;28;20502;-83
2021/01/23 04:28:36;;;;;;;1.27;0.80;;;21.70;51.70;;;;;;5013730;28;20431;-83
2021/01/23 04:31:03;;;;;;;1.10;0.93;;;21.70;51.70;;;;;;5029446;28;20447;-83
2021/01/23 04:33:34;;;;;;;1.03;0.80;;;21.70;51.70;;;;;;5031248;28;20447;-82
2021/01/23 04:36:02;;;;;;;1.70;1.33;;;21.70;51.70;;;;;;5029849;28;20407;-83
2021/01/23 04:38:28;;;;;;;1.03;0.80;;;21.70;51.80;;;;;;5031898;28;20419;-83
2021/01/23 04:40:58;;;;;;;1.07;0.93;;;21.70;51.80;;;;;;5030738;28;20407;-85
2021/01/23 04:43:24;;;;;;;2.10;0.97;;;21.70;51.80;;;;;;5029517;28;20461;-85
2021/01/23 04:45:50;;;;;;;1.00;0.73;;;21.60;51.80;;;;;;5031647;28;20409;-85
2021/01/23 04:48:19;;;;;;;1.10;0.70;;;21.60;51.70;;;;;;5028505;28;20407;-85
2021/01/23 04:50:47;;;;;;;1.60;0.90;;;21.70;51.80;;;;;;5030254;28;20512;-85
2021/01/23 04:53:13;;;;;;;1.07;0.80;;;21.60;51.80;;;;;;5030935;28;20473;-85
2021/01/23 04:55:39;;;;;;;1.10;0.80;;;21.60;51.80;;;;;;5028275;28;20422;-85
2021/01/23 04:58:05;;;;;;;0.90;0.70;;;21.60;51.80;;;;;;5028139;28;20411;-85
2021/01/23 05:00:33;;;;;;;1.27;0.80;;;21.60;51.80;;;;;;5028512;28;20184;-85
2021/01/23 05:03:01;;;;;;;1.20;0.80;;;21.60;51.80;;;;;;5028191;28;20681;-85
2021/01/23 05:05:28;;;;;;;0.90;0.70;;;21.50;51.80;;;;;;5028977;28;20474;-85
2021/01/23 05:08:04;;;;;;;1.40;1.30;;;21.60;51.80;;;;;;5028959;28;20419;-85
2021/01/23 05:10:30;;;;;;;1.30;0.80;;;21.60;51.80;;;;;;5028259;28;20427;-85
2021/01/23 05:16:25;;;;;;;1.27;1.10;;;21.60;51.80;;;;;;5029415;28;20462;-86
2021/01/23 05:19:01;;;;;;;1.40;0.90;;;21.50;51.80;;;;;;5031564;28;20435;-86
2021/01/23 05:21:32;;;;;;;1.30;0.83;;;21.50;51.80;;;;;;5029705;28;20410;-85
2021/01/23 05:24:07;;;;;;;1.40;0.77;;;21.50;51.90;;;;;;5028395;28;20399;-86
2021/01/23 05:26:33;;;;;;;1.40;1.00;;;21.60;51.90;;;;;;5032177;28;20429;-85
2021/01/23 05:29:11;;;;;;;1.10;0.80;;;21.50;51.80;;;;;;5028538;28;20423;-85
2021/01/23 05:31:38;;;;;;;1.00;0.70;;;21.60;51.80;;;;;;5029357;28;20503;-85
2021/01/23 05:34:30;;;;;;;1.93;1.07;;;21.50;51.80;;;;;;5029647;28;20490;-85
2021/01/23 05:36:56;;;;;;;0.90;0.80;;;21.60;51.80;;;;;;5021705;28;20483;-85
2021/01/23 05:39:49;;;;;;;2.03;0.90;;;21.50;51.80;;;;;;5027837;28;20426;-85
2021/01/23 05:42:15;;;;;;;0.93;0.70;;;21.60;51.80;;;;;;5028204;28;20399;-85
2021/01/23 05:44:43;;;;;;;1.10;0.80;;;21.50;51.70;;;;;;5027870;28;20430;-85
2021/01/23 05:47:25;;;;;;;1.00;0.80;;;21.60;51.80;;;;;;5027357;28;20465;-85
2021/01/23 05:49:52;;;;;;;2.90;1.03;;;21.60;51.70;;;;;;5028343;28;20422;-85
2021/01/23 05:52:18;;;;;;;1.43;0.80;;;21.60;51.70;;;;;;5028033;28;20980;-85
2021/01/23 05:54:44;;;;;;;1.30;0.80;;;21.60;51.70;;;;;;5027873;28;20463;-85
2021/01/23 05:57:11;;;;;;;1.27;0.80;;;21.60;51.70;;;;;;5029083;28;20175;-85
2021/01/23 05:59:40;;;;;;;1.13;0.77;;;21.60;51.60;;;;;;5031469;28;20411;-86
2021/01/23 06:02:11;;;;;;;1.30;1.00;;;21.60;51.60;;;;;;5030380;28;20442;-86
2021/01/23 06:04:44;;;;;;;1.20;0.73;;;21.70;51.60;;;;;;5027798;28;20424;-86
2021/01/23 06:07:10;;;;;;;1.30;0.80;;;21.70;51.60;;;;;;5015001;28;20419;-86
2021/01/23 06:09:43;;;;;;;1.00;0.80;;;21.70;51.50;;;;;;5030243;28;20411;-85
2021/01/23 06:12:44;;;;;;;1.40;0.80;;;21.70;51.50;;;;;;5030586;28;20412;-85
2021/01/23 06:15:32;;;;;;;1.00;0.80;;;21.70;51.40;;;;;;5010974;28;20426;-85
2021/01/23 06:17:59;;;;;;;1.00;0.70;;;21.70;51.50;;;;;;5011047;28;20447;-85
2021/01/23 06:20:39;;;;;;;1.00;0.67;;;21.70;51.50;;;;;;5010727;28;20444;-85
2021/01/23 06:23:09;;;;;;;1.13;0.83;;;21.80;51.50;;;;;;4994130;28;20461;-85
2021/01/23 06:25:53;;;;;;;1.27;0.80;;;21.70;51.40;;;;;;4993594;28;20813;-85
2021/01/23 06:28:22;;;;;;;1.00;0.80;;;21.80;52.00;;;;;;4993382;28;20459;-85
2021/01/23 06:30:50;;;;;;;1.10;0.77;;;21.80;51.40;;;;;;5009339;28;20416;-85
2021/01/23 06:33:22;;;;;;;1.70;0.87;;;21.80;51.40;;;;;;5010078;28;20458;-85
2021/01/23 06:36:17;;;;;;;1.27;0.97;;;21.80;51.40;;;;;;5010288;28;20425;-85
2021/01/23 06:39:12;;;;;;;1.40;1.10;;;21.80;51.30;;;;;;5009671;28;20436;-85
2021/01/23 06:41:38;;;;;;;0.90;0.70;;;21.90;51.40;;;;;;5010769;28;20431;-85
2021/01/23 06:44:07;;;;;;;0.90;0.70;;;21.80;51.40;;;;;;4978149;28;20532;-85
2021/01/23 06:46:57;;;;;;;1.67;0.93;;;21.80;51.40;;;;;;4995417;28;20454;-85
2021/01/23 06:49:25;;;;;;;1.20;0.80;;;21.90;51.40;;;;;;5020270;28;20965;-85
2021/01/23 06:52:04;;;;;;;1.50;1.00;;;21.80;51.30;;;;;;5029631;28;20451;-85
2021/01/23 06:54:33;;;;;;;1.37;0.90;;;21.90;51.40;;;;;;5033588;28;20450;-85
2021/01/23 06:56:59;;;;;;;1.13;0.70;;;21.80;51.30;;;;;;5030878;28;20414;-85
2021/01/23 06:59:37;;;;;;;1.20;0.90;;;21.90;51.40;;;;;;5029871;28;20420;-86
2021/01/23 07:02:10;;;;;;;1.13;0.70;;;21.90;51.40;;;;;;5029579;28;20172;-85
2021/01/23 07:04:49;;;;;;;1.23;0.80;;;21.80;51.30;;;;;;5030682;28;20387;-86
2021/01/23 07:07:16;;;;;;;1.70;0.80;;;21.80;51.30;;;;;;5030077;28;20399;-86
2021/01/23 07:09:49;;;;;;;1.00;0.90;;;21.90;51.30;;;;;;5029592;28;20447;-86
2021/01/23 07:12:35;;;;;;;0.80;0.60;;;21.90;51.30;;;;;;5028634;28;20455;-86
2021/01/23 07:15:05;;;;;;;1.13;0.80;;;21.90;51.30;;;;;;5029312;28;20427;-86
2021/01/23 07:17:37;;;;;;;1.70;0.80;;;21.90;51.30;;;;;;5028451;28;20404;-91
2021/01/23 07:20:08;;;;;;;1.17;0.73;;;21.90;51.30;;;;;;5028983;28;20408;-85
2021/01/23 07:22:35;;;;;;;1.53;0.80;;;21.90;51.30;;;;;;5031773;28;20399;-84
2021/01/23 07:25:03;;;;;;;0.97;0.70;;;21.90;51.30;;;;;;5029016;28;20443;-86
2021/01/23 07:27:29;;;;;;;1.30;1.03;;;21.90;51.30;;;;;;5031857;28;20427;-87
2021/01/23 07:29:55;;;;;;;1.80;0.90;;;21.90;51.30;;;;;;5032180;28;20446;-86
2021/01/23 07:32:23;;;;;;;1.67;1.10;;;21.90;51.20;;;;;;5028684;28;20462;-86
2021/01/23 07:34:54;;;;;;;1.00;0.67;;;21.90;51.20;;;;;;5034524;28;20438;-86
2021/01/23 07:37:47;;;;;;;1.07;0.70;;;21.90;51.20;;;;;;5031341;28;20427;-87
2021/01/23 07:40:31;;;;;;;0.90;0.63;;;21.90;51.20;;;;;;5029706;28;20403;-87
2021/01/23 07:42:59;;;;;;;1.20;0.80;;;21.90;51.20;;;;;;5030501;28;20495;-87
2021/01/23 07:45:25;;;;;;;0.97;0.70;;;21.90;51.20;;;;;;5031276;28;20453;-87
2021/01/23 07:48:02;;;;;;;1.00;0.70;;;21.90;51.20;;;;;;5031049;28;20538;-87
2021/01/23 07:50:41;;;;;;;0.90;0.60;;;22.00;51.30;;;;;;5029467;28;20179;-87
2021/01/23 07:53:21;;;;;;;1.50;0.80;;;22.00;51.20;;;;;;5029419;28;20455;-87
2021/01/23 07:55:51;;;;;;;1.53;0.90;;;21.90;51.20;;;;;;5031918;28;20420;-87
2021/01/23 07:58:22;;;;;;;1.20;1.03;;;21.90;51.20;;;;;;5029220;28;20416;-88
2021/01/23 08:00:48;;;;;;;1.00;0.70;;;22.00;51.30;;;;;;5027992;28;20419;-86
2021/01/23 08:03:16;;;;;;;1.10;0.80;;;21.90;51.20;;;;;;5027080;28;20802;-87
2021/01/23 08:05:49;;;;;;;1.17;0.60;;;21.90;51.20;;;;;;5029030;28;20251;-87
2021/01/23 08:08:35;;;;;;;1.17;0.73;;;22.00;51.30;;;;;;5028689;28;20506;-88
2021/01/23 08:11:05;;;;;;;1.23;0.70;;;22.00;51.20;;;;;;5026701;28;20462;-87
2021/01/23 08:13:43;;;;;;;1.53;0.77;;;22.00;51.30;;;;;;5027089;28;20461;-88
2021/01/23 08:16:13;;;;;;;1.00;0.60;;;22.00;51.30;;;;;;5027597;28;20427;-87
2021/01/23 08:18:43;;;;;;;1.27;0.70;;;22.00;51.30;;;;;;5026725;28;20408;-86
2021/01/23 08:21:19;;;;;;;1.03;0.80;;;22.00;51.30;;;;;;5028043;28;20419;-86
2021/01/23 08:23:46;;;;;;;1.20;0.80;;;22.00;51.20;;;;;;5029878;28;20414;-86
2021/01/23 08:26:12;;;;;;;1.30;0.70;;;21.90;51.20;;;;;;5028588;28;20442;-86
2021/01/23 08:28:46;;;;;;;0.80;0.60;;;22.00;51.20;;;;;;5029388;28;20452;-88
2021/01/23 08:31:44;;;;;;;1.00;0.70;;;22.00;51.20;;;;;;5032883;28;20482;-87
2021/01/23 08:34:14;;;;;;;1.27;0.80;;;22.00;51.20;;;;;;5020585;28;21023;-87
2021/01/23 08:36:43;;;;;;;1.10;0.70;;;22.00;51.30;;;;;;5031231;28;20431;-88
2021/01/23 08:39:11;;;;;;;1.20;0.73;;;22.00;51.30;;;;;;5027400;28;20427;-88
2021/01/23 08:41:39;;;;;;;1.37;0.80;;;22.00;51.30;;;;;;5026258;28;20828;-89
2021/01/23 08:44:05;;;;;;;1.00;0.90;;;22.00;51.20;;;;;;5025458;28;20428;-90
2021/01/23 08:46:35;;;;;;;1.07;0.80;;;22.00;51.20;;;;;;5025624;28;20422;-88
2021/01/23 08:49:00;;;;;;;1.57;1.30;;;22.00;51.20;;;;;;5025084;28;20526;-88
2021/01/23 08:51:27;;;;;;;0.80;0.60;;;22.00;51.20;;;;;;5024998;28;20419;-89
2021/01/23 08:53:56;;;;;;;0.90;0.60;;;22.00;51.20;;;;;;5024824;28;20199;-89
2021/01/23 08:56:24;;;;;;;0.90;0.70;;;22.00;51.20;;;;;;5026738;28;20400;-89
2021/01/23 08:58:54;;;;;;;0.83;0.63;;;22.00;51.20;;;;;;5026282;28;20412;-88
2021/01/23 09:01:20;;;;;;;1.40;0.83;;;22.00;51.20;;;;;;5026230;28;20418;-88
2021/01/23 09:03:46;;;;;;;1.10;0.90;;;22.00;51.20;;;;;;5029785;28;20423;-88
2021/01/23 09:06:13;;;;;;;0.80;0.70;;;22.00;51.20;;;;;;5026464;28;20454;-88
2021/01/23 09:08:39;;;;;;;1.10;0.83;;;22.10;51.20;;;;;;5027539;28;20431;-88
2021/01/23 09:11:05;;;;;;;1.10;0.80;;;22.00;51.20;;;;;;5029768;28;20422;-88
2021/01/23 09:13:35;;;;;;;2.43;1.00;;;22.10;51.20;;;;;;5026949;28;20458;-88
2021/01/23 09:16:01;;;;;;;1.20;0.70;;;22.10;51.20;;;;;;5030012;28;20422;-88
2021/01/23 09:18:27;;;;;;;0.90;0.60;;;22.00;51.20;;;;;;5030135;28;20420;-87
2021/01/23 09:20:53;;;;;;;1.10;0.60;;;22.00;51.10;;;;;;5025539;28;20215;-87
2021/01/23 09:23:18;;;;;;;1.03;0.70;;;22.00;51.10;;;;;;5025676;28;20207;-88
2021/01/23 09:25:44;;;;;;;1.30;0.93;;;22.00;51.70;;;;;;5024946;28;20282;-87
2021/01/23 09:28:10;;;;;;;1.00;0.70;;;22.00;51.20;;;;;;5025709;28;20191;-87
2021/01/23 09:30:36;;;;;;;0.90;0.60;;;22.00;51.20;;;;;;5026508;28;20411;-87
2021/01/23 09:33:05;;;;;;;1.00;0.70;;;22.00;51.20;;;;;;5028046;28;20558;-91
2021/01/23 09:35:31;;;;;;;1.00;0.70;;;22.00;51.20;;;;;;5024904;28;20507;-86
2021/01/23 09:37:57;;;;;;;1.53;0.70;;;22.00;51.20;;;;;;5026810;28;20416;-86
2021/01/23 09:40:30;;;;;;;1.20;0.70;;;22.00;51.20;;;;;;5026300;28;20172;-86
2021/01/23 09:42:56;;;;;;;1.00;0.77;;;22.10;51.20;;;;;;5029475;28;20176;-86
2021/01/23 09:45:25;;;;;;;1.23;0.93;;;22.10;51.20;;;;;;5029652;28;20411;-86
2021/01/23 09:47:51;;;;;;;0.90;0.60;;;22.00;51.20;;;;;;5030846;28;20242;-86
2021/01/23 09:50:21;;;;;;;0.80;0.60;;;22.10;51.20;;;;;;5034851;28;20415;-85
2021/01/23 09:52:50;;;;;;;1.70;1.20;;;22.10;51.20;;;;;;5033262;28;20256;-87
2021/01/23 09:55:20;;;;;;;1.00;0.70;;;22.00;51.20;;;;;;5032074;28;20450;-87
2021/01/23 09:57:45;;;;;;;1.07;0.70;;;22.10;51.20;;;;;;5031795;28;20419;-87
2021/01/23 10:00:12;;;;;;;0.90;0.70;;;22.10;51.20;;;;;;5030881;28;20433;-87
2021/01/23 10:02:39;;;;;;;0.90;0.70;;;22.10;51.20;;;;;;5028384;28;20248;-86
2021/01/23 10:05:05;;;;;;;1.87;0.80;;;22.10;51.20;;;;;;5029151;28;20442;-88
2021/01/23 10:07:34;;;;;;;1.30;0.90;;;22.10;51.20;;;;;;5030365;28;20498;-86
2021/01/23 10:10:00;;;;;;;1.00;0.80;;;22.10;51.20;;;;;;5015921;28;20485;-86
2021/01/23 10:12:29;;;;;;;1.50;1.00;;;22.10;51.20;;;;;;5031261;28;20559;-89
2021/01/23 10:14:55;;;;;;;2.50;0.90;;;22.10;51.20;;;;;;5030477;28;20181;-86
2021/01/23 10:17:22;;;;;;;1.40;1.10;;;22.10;51.10;;;;;;5030737;28;20947;-86
2021/01/23 10:19:48;;;;;;;1.30;0.80;;;22.10;51.10;;;;;;5031033;28;20411;-86
2021/01/23 10:22:14;;;;;;;1.43;0.90;;;22.10;51.10;;;;;;5032471;28;20414;-86
2021/01/23 10:24:40;;;;;;;1.77;1.13;;;22.10;51.00;;;;;;5032504;28;20423;-86
2021/01/23 10:27:06;;;;;;;2.27;1.00;;;22.10;51.00;;;;;;5031501;28;20188;-86
2021/01/23 10:29:32;;;;;;;1.10;0.93;;;22.10;51.00;;;;;;5033396;28;20415;-85
2021/01/23 10:32:07;;;;;;;0.80;0.63;;;22.10;51.00;;;;;;5033407;28;20244;-87
2021/01/23 10:34:36;;;;;;;1.60;0.90;;;22.10;51.00;;;;;;5030377;28;20175;-87
2021/01/23 10:37:05;;;;;;;3.30;1.50;;;22.10;51.00;;;;;;5032666;28;20945;-86
2021/01/23 10:39:30;;;;;;;4.40;1.53;;;22.10;51.00;;;;;;5017054;28;20427;-86
2021/01/23 10:41:56;;;;;;;2.23;1.10;;;22.10;51.00;;;;;;5030145;28;20415;-87
2021/01/23 10:44:24;;;;;;;1.70;0.90;;;22.10;51.00;;;;;;5031067;28;20263;-87
2021/01/23 10:46:50;;;;;;;1.40;1.10;;;22.10;51.00;;;;;;5032278;28;20172;-85
2021/01/23 10:49:17;;;;;;;1.63;1.07;;;22.10;51.00;;;;;;5029921;28;20781;-87
2021/01/23 10:51:43;;;;;;;1.73;1.00;;;22.10;51.00;;;;;;5029140;28;20439;-86
2021/01/23 10:54:58;;;;;;;1.80;1.03;;;22.10;51.00;;;;;;5030078;28;20494;-86
2021/01/23 10:57:25;;;;;;;3.20;1.20;;;22.10;51.00;;;;;;5028475;28;20222;-86
2021/01/23 10:59:50;;;;;;;1.20;0.70;;;22.00;51.00;;;;;;5029650;28;20450;-86
2021/01/23 11:02:16;;;;;;;2.23;1.50;;;22.00;51.00;;;;;;5029069;28;20415;-87
2021/01/23 11:04:43;;;;;;;1.10;0.90;;;22.00;51.00;;;;;;5032886;28;20168;-86
2021/01/23 11:07:11;;;;;;;2.57;1.30;;;22.00;51.00;;;;;;5032328;28;20415;-86
2021/01/23 11:09:37;;;;;;;4.10;1.40;;;22.00;51.00;;;;;;5030235;28;20399;-86
2021/01/23 11:12:04;;;;;;;1.57;1.00;;;22.10;51.10;;;;;;5032492;28;20416;-86
2021/01/23 11:14:40;;;;;;;1.87;1.10;;;22.10;51.10;;;;;;5031604;28;20411;-86
2021/01/23 11:17:09;;;;;;;2.10;1.07;;;22.10;51.10;;;;;;5031000;28;20431;-86
2021/01/23 11:19:35;;;;;;;1.60;1.27;;;22.10;51.10;;;;;;5033119;28;20837;-87
2021/01/23 11:22:01;;;;;;;2.13;1.07;;;22.10;51.10;;;;;;5029129;28;20435;-87
2021/01/23 11:24:29;;;;;;;1.93;1.63;;;22.10;51.20;;;;;;5029432;28;20177;-87
2021/01/23 11:26:55;;;;;;;4.30;1.23;;;22.10;51.10;;;;;;5028750;28;20474;-87
2021/01/23 11:29:24;;;;;;;2.23;1.27;;;22.10;51.10;;;;;;5031670;28;20416;-87
2021/01/23 11:31:50;;;;;;;2.50;1.20;;;22.10;51.20;;;;;;5030195;28;20407;-87
2021/01/23 11:34:18;;;;;;;3.53;1.30;;;22.10;51.20;;;;;;5012022;28;20470;-87
2021/01/23 11:36:44;;;;;;;2.50;1.60;;;22.10;51.10;;;;;;5012318;28;20531;-87
2021/01/23 11:39:13;;;;;;;3.57;1.57;;;22.20;51.20;;;;;;5028514;28;20465;-87
2021/01/23 11:41:40;;;;;;;3.70;2.00;;;22.10;51.10;;;;;;5028279;28;20428;-87
2021/01/23 11:44:09;;;;;;;2.90;1.40;;;22.10;51.20;;;;;;5029709;28;20422;-88
2021/01/23 11:46:35;;;;;;;2.83;1.00;;;22.10;51.10;;;;;;5028603;28;20415;-87
2021/01/23 11:49:01;;;;;;;4.40;1.27;;;22.10;51.10;;;;;;5028292;28;20458;-87
2021/01/23 11:51:33;;;;;;;3.17;1.40;;;22.10;51.10;;;;;;5029236;28;20204;-85
2021/01/23 11:53:59;;;;;;;3.23;1.20;;;22.10;51.10;;;;;;5030903;28;20455;-85
2021/01/23 11:56:27;;;;;;;3.77;1.23;;;22.10;51.10;;;;;;5032304;28;20906;-85
2021/01/23 11:58:54;;;;;;;1.70;1.23;;;22.10;51.10;;;;;;5030654;28;20419;-85
2021/01/23 12:01:20;;;;;;;2.60;1.47;;;22.10;51.10;;;;;;5029203;28;20416;-84
2021/01/23 12:03:46;;;;;;;7.43;1.67;;;22.10;51.10;;;;;;5029472;28;20473;-85
2021/01/23 12:06:12;;;;;;;3.43;1.10;;;22.10;51.20;;;;;;5029096;28;20446;-87
2021/01/23 12:08:40;;;;;;;2.70;1.50;;;22.10;51.10;;;;;;5028466;28;20192;-88
2021/01/23 12:11:08;;;;;;;3.30;1.60;;;22.10;51.10;;;;;;5011533;28;20638;-86
2021/01/23 12:13:34;;;;;;;2.30;1.70;;;22.10;51.10;;;;;;5028941;28;20478;-86
2021/01/23 12:16:00;;;;;;;5.40;1.60;;;22.10;51.10;;;;;;5027962;28;20427;-86
2021/01/23 12:18:29;;;;;;;2.47;1.20;;;22.10;51.10;;;;;;5045344;28;20214;-85
2021/01/23 12:20:54;;;;;;;1.70;1.00;;;22.10;51.10;;;;;;5046196;28;20506;-86
2021/01/23 12:23:20;;;;;;;2.60;1.47;;;22.10;51.10;;;;;;5048253;28;20422;-86
2021/01/23 12:25:46;;;;;;;1.90;1.30;;;22.10;51.10;;;;;;5046205;28;20210;-85
2021/01/23 12:28:12;;;;;;;1.90;1.47;;;22.10;51.20;;;;;;5046920;28;20179;-85
2021/01/23 12:30:38;;;;;;;1.97;1.57;;;22.10;51.10;;;;;;5051407;28;20657;-87
2021/01/23 12:33:04;;;;;;;2.50;1.50;;;22.10;51.20;;;;;;5047341;28;20222;-87
2021/01/23 12:35:30;;;;;;;6.83;1.90;;;22.10;51.20;;;;;;5047519;28;20183;-86
2021/01/23 12:37:58;;;;;;;2.90;1.60;;;22.10;51.20;;;;;;5049548;28;20410;-86
2021/01/23 12:40:25;;;;;;;5.03;2.00;;;22.10;51.20;;;;;;5048176;28;20513;-87
2021/01/23 12:42:51;;;;;;;3.87;1.67;;;22.10;51.20;;;;;;5048043;28;20422;-87
2021/01/23 12:45:17;;;;;;;2.60;1.40;;;22.10;51.20;;;;;;5048727;28;20489;-86
2021/01/23 12:47:43;;;;;;;4.10;1.97;;;22.10;51.20;;;;;;5047634;28;20457;-86
2021/01/23 12:50:09;;;;;;;2.83;1.50;;;22.10;51.20;;;;;;5047883;28;20176;-87
2021/01/23 12:52:35;;;;;;;2.50;1.53;;;22.10;51.20;;;;;;5046475;28;20203;-86
2021/01/23 12:55:08;;;;;;;2.60;1.87;;;22.10;51.20;;;;;;5047772;28;20415;-85
2021/01/23 12:57:40;;;;;;;5.33;1.50;;;22.10;51.20;;;;;;5047242;28;20434;-87
2021/01/23 13:00:10;;;;;;;2.60;1.33;;;22.10;51.20;;;;;;5047168;28;20430;-86
2021/01/23 13:02:36;;;;;;;2.90;1.70;;;22.10;51.20;;;;;;5046780;28;20502;-87
2021/01/23 13:05:13;;;;;;;3.57;1.63;;;22.10;51.20;;;;;;5031265;28;20492;-86
2021/01/23 13:07:41;;;;;;;3.53;1.40;;;22.10;51.20;;;;;;5047611;28;21030;-86
2021/01/23 13:10:10;;;;;;;3.80;2.03;;;22.10;51.20;;;;;;5045964;28;20412;-86
2021/01/23 13:12:36;;;;;;;2.90;1.30;;;22.00;51.10;;;;;;5028802;28;20459;-87